DAL103 KORD-KATL
Flight info
| Callsign | DAL103 |
|---|---|
| Flight time | 1h 26m |
| Altitude | 40000 |
| Route | CMSKY CARYN CYBIL PXV/N0476F410 HITMN NEWBB IHAVE MTHEW CHPPR1 |
| Aircraft | A359/H-SDE2E3GHIJ3J4J5LM1ORWXY/LB1D1 |
Departure
| Time | 2026-05-05 00:20 |
|---|---|
| Airport | Chicago O'Hare International Airport (KORD) |
Arrival
| Time | 2026-05-05 01:46 |
|---|---|
| Airport | Hartsfield Jackson Atlanta International Airport (KATL) |
| Time | Latitude | Longitude | Altitude | Speed | Heading |
|---|---|---|---|---|---|
| 2026-05-04 23:52 | 41.97509 | -87.89221 | 687 ft | 0 kts | 91° |
| 2026-05-05 00:10 | 41.97509 | -87.89225 | 668 ft | 3 kts | 91° |
| 2026-05-05 00:10 | 41.97510 | -87.89260 | 668 ft | 4 kts | 94° |
| 2026-05-05 00:10 | 41.97512 | -87.89296 | 668 ft | 4 kts | 94° |
| 2026-05-05 00:10 | 41.97514 | -87.89328 | 668 ft | 4 kts | 116° |
| 2026-05-05 00:11 | 41.97528 | -87.89342 | 663 ft | 4 kts | 190° |
| 2026-05-05 00:11 | 41.97555 | -87.89335 | 664 ft | 4 kts | 182° |
| 2026-05-05 00:11 | 41.97564 | -87.89334 | 665 ft | 0 kts | 179° |
| 2026-05-05 00:16 | 41.97544 | -87.89334 | 667 ft | 7 kts | 179° |
| 2026-05-05 00:16 | 41.97458 | -87.89331 | 667 ft | 18 kts | 179° |
| 2026-05-05 00:16 | 41.97290 | -87.89330 | 668 ft | 28 kts | 179° |
| 2026-05-05 00:16 | 41.97223 | -87.89319 | 670 ft | 6 kts | 156° |
| 2026-05-05 00:17 | 41.97197 | -87.89262 | 670 ft | 10 kts | 102° |
| 2026-05-05 00:17 | 41.97197 | -87.89129 | 666 ft | 18 kts | 89° |
| 2026-05-05 00:17 | 41.97197 | -87.88934 | 666 ft | 23 kts | 90° |
| 2026-05-05 00:17 | 41.97197 | -87.88708 | 664 ft | 20 kts | 90° |
| 2026-05-05 00:18 | 41.97197 | -87.88520 | 664 ft | 22 kts | 90° |
| 2026-05-05 00:18 | 41.97197 | -87.88308 | 667 ft | 24 kts | 90° |
| 2026-05-05 00:18 | 41.97196 | -87.88105 | 666 ft | 14 kts | 95° |
| 2026-05-05 00:18 | 41.97130 | -87.88038 | 668 ft | 13 kts | 169° |
| 2026-05-05 00:19 | 41.97040 | -87.88034 | 670 ft | 13 kts | 179° |
| 2026-05-05 00:19 | 41.96942 | -87.88048 | 672 ft | 15 kts | 202° |
| 2026-05-05 00:19 | 41.96850 | -87.88145 | 670 ft | 21 kts | 221° |
| 2026-05-05 00:19 | 41.96530 | -87.88525 | 674 ft | 111 kts | 221° |
| 2026-05-05 00:20 | 41.95754 | -87.89466 | 1003 ft | 173 kts | 221° |
| 2026-05-05 00:20 | 41.94810 | -87.90630 | 1945 ft | 196 kts | 221° |
| 2026-05-05 00:20 | 41.93697 | -87.91873 | 3049 ft | 214 kts | 217° |
| 2026-05-05 00:20 | 41.92375 | -87.92718 | 4011 ft | 212 kts | 201° |
| 2026-05-05 00:21 | 41.90884 | -87.93020 | 4641 ft | 223 kts | 191° |
| 2026-05-05 00:21 | 41.89260 | -87.93048 | 4958 ft | 245 kts | 185° |
| 2026-05-05 00:21 | 41.87497 | -87.92890 | 5395 ft | 261 kts | 181° |
| 2026-05-05 00:21 | 41.85657 | -87.92636 | 5917 ft | 271 kts | 180° |
| 2026-05-05 00:22 | 41.83750 | -87.92353 | 6517 ft | 278 kts | 180° |
| 2026-05-05 00:22 | 41.81818 | -87.92077 | 7150 ft | 281 kts | 181° |
| 2026-05-05 00:22 | 41.79855 | -87.91820 | 7773 ft | 285 kts | 181° |
| 2026-05-05 00:22 | 41.77895 | -87.91587 | 8378 ft | 289 kts | 181° |
| 2026-05-05 00:23 | 41.75876 | -87.91364 | 9030 ft | 293 kts | 181° |
| 2026-05-05 00:23 | 41.73834 | -87.91149 | 9662 ft | 297 kts | 181° |
| 2026-05-05 00:23 | 41.71737 | -87.90934 | 10063 ft | 309 kts | 181° |
| 2026-05-05 00:23 | 41.69531 | -87.90713 | 10338 ft | 325 kts | 181° |
| 2026-05-05 00:24 | 41.67222 | -87.90478 | 10636 ft | 338 kts | 181° |
| 2026-05-05 00:24 | 41.64855 | -87.90230 | 11112 ft | 344 kts | 181° |
| 2026-05-05 00:24 | 41.62445 | -87.89972 | 11664 ft | 348 kts | 180° |
| 2026-05-05 00:24 | 41.60019 | -87.89709 | 12234 ft | 351 kts | 181° |
| 2026-05-05 00:25 | 41.57576 | -87.89446 | 12826 ft | 353 kts | 181° |
| 2026-05-05 00:25 | 41.55119 | -87.89183 | 13387 ft | 356 kts | 181° |
| 2026-05-05 00:25 | 41.52635 | -87.88920 | 13884 ft | 359 kts | 181° |
| 2026-05-05 00:25 | 41.50177 | -87.88661 | 14371 ft | 361 kts | 181° |
| 2026-05-05 00:26 | 41.47658 | -87.88396 | 14879 ft | 363 kts | 181° |
| 2026-05-05 00:26 | 41.45134 | -87.88131 | 15396 ft | 365 kts | 181° |
| 2026-05-05 00:26 | 41.42588 | -87.87880 | 15920 ft | 366 kts | 183° |
| 2026-05-05 00:26 | 41.40045 | -87.87903 | 16449 ft | 366 kts | 187° |
| 2026-05-05 00:27 | 41.38357 | -87.87991 | 16785 ft | 367 kts | 188° |
| 2026-05-05 00:27 | 41.34944 | -87.88262 | 17474 ft | 369 kts | 189° |
| 2026-05-05 00:27 | 41.32378 | -87.88508 | 17950 ft | 371 kts | 189° |
| 2026-05-05 00:27 | 41.29791 | -87.88769 | 18325 ft | 375 kts | 189° |
| 2026-05-05 00:28 | 41.27175 | -87.89032 | 18737 ft | 378 kts | 189° |
| 2026-05-05 00:28 | 41.24531 | -87.89165 | 19162 ft | 382 kts | 186° |
| 2026-05-05 00:28 | 41.21859 | -87.89168 | 19582 ft | 385 kts | 185° |
| 2026-05-05 00:28 | 41.19163 | -87.89117 | 20002 ft | 388 kts | 184° |
| 2026-05-05 00:29 | 41.16457 | -87.89037 | 20436 ft | 391 kts | 184° |
| 2026-05-05 00:29 | 41.13729 | -87.88944 | 20844 ft | 393 kts | 184° |
| 2026-05-05 00:29 | 41.11920 | -87.88881 | 21115 ft | 395 kts | 184° |
| 2026-05-05 00:29 | 41.08231 | -87.88756 | 21637 ft | 398 kts | 184° |
| 2026-05-05 00:30 | 41.06405 | -87.88696 | 21900 ft | 400 kts | 184° |
| 2026-05-05 00:30 | 41.03602 | -87.88607 | 22322 ft | 402 kts | 184° |
| 2026-05-05 00:30 | 41.00801 | -87.88520 | 22718 ft | 404 kts | 184° |
| 2026-05-05 00:30 | 40.97985 | -87.88435 | 23111 ft | 406 kts | 184° |
| 2026-05-05 00:31 | 40.95151 | -87.88349 | 23456 ft | 408 kts | 184° |
| 2026-05-05 00:31 | 40.92305 | -87.88263 | 23805 ft | 410 kts | 184° |
| 2026-05-05 00:31 | 40.89446 | -87.88177 | 24160 ft | 411 kts | 184° |
| 2026-05-05 00:31 | 40.86574 | -87.88091 | 24466 ft | 414 kts | 183° |
| 2026-05-05 00:32 | 40.83686 | -87.88004 | 24802 ft | 416 kts | 183° |
| 2026-05-05 00:32 | 40.80785 | -87.87917 | 25159 ft | 418 kts | 183° |
| 2026-05-05 00:32 | 40.77904 | -87.87830 | 25515 ft | 419 kts | 183° |
| 2026-05-05 00:32 | 40.74983 | -87.87742 | 25886 ft | 421 kts | 183° |
| 2026-05-05 00:33 | 40.72056 | -87.87653 | 26277 ft | 423 kts | 183° |
| 2026-05-05 00:33 | 40.69102 | -87.87565 | 26675 ft | 425 kts | 183° |
| 2026-05-05 00:33 | 40.66136 | -87.87476 | 27101 ft | 426 kts | 183° |
| 2026-05-05 00:33 | 40.63159 | -87.87387 | 27512 ft | 429 kts | 183° |
| 2026-05-05 00:34 | 40.60173 | -87.87298 | 27945 ft | 431 kts | 183° |
| 2026-05-05 00:34 | 40.57166 | -87.87208 | 28398 ft | 433 kts | 183° |
| 2026-05-05 00:34 | 40.54152 | -87.87119 | 28838 ft | 435 kts | 183° |
| 2026-05-05 00:34 | 40.51118 | -87.87028 | 29284 ft | 438 kts | 183° |
| 2026-05-05 00:35 | 40.48057 | -87.86937 | 29727 ft | 440 kts | 183° |
| 2026-05-05 00:35 | 40.44983 | -87.86846 | 30109 ft | 443 kts | 183° |
| 2026-05-05 00:35 | 40.41893 | -87.86755 | 30458 ft | 446 kts | 183° |
| 2026-05-05 00:35 | 40.38772 | -87.86662 | 30849 ft | 448 kts | 183° |
| 2026-05-05 00:36 | 40.35644 | -87.86569 | 31265 ft | 450 kts | 183° |
| 2026-05-05 00:36 | 40.32502 | -87.86475 | 31667 ft | 452 kts | 183° |
| 2026-05-05 00:36 | 40.29392 | -87.86379 | 32048 ft | 454 kts | 183° |
| 2026-05-05 00:36 | 40.26185 | -87.86250 | 32435 ft | 456 kts | 182° |
| 2026-05-05 00:37 | 40.23043 | -87.86104 | 32782 ft | 459 kts | 182° |
| 2026-05-05 00:37 | 40.19833 | -87.85951 | 33078 ft | 462 kts | 182° |
| 2026-05-05 00:37 | 40.16607 | -87.85798 | 33413 ft | 464 kts | 182° |
| 2026-05-05 00:37 | 40.13375 | -87.85648 | 33761 ft | 466 kts | 182° |
| 2026-05-05 00:38 | 40.10117 | -87.85500 | 34019 ft | 469 kts | 182° |
| 2026-05-05 00:38 | 40.06842 | -87.85355 | 34257 ft | 472 kts | 183° |
| 2026-05-05 00:38 | 40.03558 | -87.85210 | 34594 ft | 472 kts | 183° |
| 2026-05-05 00:38 | 40.00274 | -87.85065 | 34937 ft | 473 kts | 183° |
| 2026-05-05 00:39 | 39.96978 | -87.84920 | 35262 ft | 474 kts | 183° |
| 2026-05-05 00:39 | 39.93682 | -87.84776 | 35603 ft | 475 kts | 183° |
| 2026-05-05 00:39 | 39.90377 | -87.84631 | 35958 ft | 475 kts | 183° |
| 2026-05-05 00:39 | 39.87075 | -87.84487 | 36283 ft | 476 kts | 183° |
| 2026-05-05 00:40 | 39.83763 | -87.84343 | 36626 ft | 476 kts | 184° |
| 2026-05-05 00:40 | 39.80448 | -87.84198 | 36946 ft | 477 kts | 184° |
| 2026-05-05 00:40 | 39.77130 | -87.84054 | 37217 ft | 478 kts | 184° |
| 2026-05-05 00:40 | 39.73791 | -87.83910 | 37407 ft | 481 kts | 184° |
| 2026-05-05 00:41 | 39.70438 | -87.83765 | 37723 ft | 481 kts | 184° |
| 2026-05-05 00:41 | 39.67086 | -87.83619 | 38088 ft | 481 kts | 184° |
| 2026-05-05 00:41 | 39.63741 | -87.83472 | 38394 ft | 481 kts | 184° |
| 2026-05-05 00:41 | 39.60395 | -87.83327 | 38638 ft | 481 kts | 184° |
| 2026-05-05 00:42 | 39.57052 | -87.83181 | 38881 ft | 481 kts | 184° |
| 2026-05-05 00:42 | 39.53701 | -87.83037 | 39045 ft | 483 kts | 184° |
| 2026-05-05 00:42 | 39.50329 | -87.82893 | 39187 ft | 485 kts | 184° |
| 2026-05-05 00:42 | 39.46949 | -87.82748 | 39403 ft | 486 kts | 184° |
| 2026-05-05 00:43 | 39.43575 | -87.82602 | 39633 ft | 486 kts | 184° |
| 2026-05-05 00:43 | 39.36805 | -87.82314 | 39726 ft | 494 kts | 184° |
| 2026-05-05 00:44 | 39.29926 | -87.82018 | 39728 ft | 494 kts | 184° |
| 2026-05-05 00:44 | 39.23057 | -87.81719 | 39737 ft | 494 kts | 184° |
| 2026-05-05 00:45 | 39.16176 | -87.81423 | 39730 ft | 494 kts | 184° |
| 2026-05-05 00:45 | 39.09296 | -87.81129 | 39711 ft | 494 kts | 184° |
| 2026-05-05 00:46 | 39.02463 | -87.80839 | 39733 ft | 495 kts | 184° |
| 2026-05-05 00:46 | 38.95572 | -87.80546 | 39731 ft | 495 kts | 184° |
| 2026-05-05 00:47 | 38.88689 | -87.80253 | 39731 ft | 495 kts | 184° |
| 2026-05-05 00:47 | 38.81791 | -87.79961 | 39738 ft | 497 kts | 184° |
| 2026-05-05 00:48 | 38.74880 | -87.79669 | 39739 ft | 497 kts | 184° |
| 2026-05-05 00:48 | 38.67952 | -87.79376 | 39744 ft | 498 kts | 184° |
| 2026-05-05 00:49 | 38.61025 | -87.79084 | 39747 ft | 498 kts | 184° |
| 2026-05-05 00:49 | 38.54077 | -87.78793 | 39747 ft | 500 kts | 184° |
| 2026-05-05 00:50 | 38.47116 | -87.78500 | 39745 ft | 500 kts | 184° |
| 2026-05-05 00:50 | 38.40200 | -87.78209 | 39761 ft | 500 kts | 184° |
| 2026-05-05 00:51 | 38.33193 | -87.77916 | 39770 ft | 500 kts | 184° |
| 2026-05-05 00:51 | 38.26277 | -87.77627 | 39788 ft | 500 kts | 184° |
| 2026-05-05 00:52 | 38.19315 | -87.77337 | 39780 ft | 500 kts | 184° |
| 2026-05-05 00:52 | 38.12339 | -87.77048 | 39783 ft | 503 kts | 185° |
| 2026-05-05 00:53 | 38.05338 | -87.76760 | 39786 ft | 505 kts | 185° |
| 2026-05-05 00:53 | 37.98294 | -87.76466 | 39787 ft | 506 kts | 185° |
| 2026-05-05 00:54 | 37.91290 | -87.74944 | 40076 ft | 520 kts | 167° |
| 2026-05-05 00:54 | 37.87914 | -87.73238 | 40276 ft | 524 kts | 161° |
| 2026-05-05 00:54 | 37.84593 | -87.71310 | 40527 ft | 525 kts | 160° |
| 2026-05-05 00:54 | 37.81310 | -87.69294 | 40752 ft | 525 kts | 158° |
| 2026-05-05 00:55 | 37.78029 | -87.67237 | 40793 ft | 529 kts | 158° |
| 2026-05-05 00:55 | 37.71426 | -87.63099 | 40795 ft | 529 kts | 159° |
| 2026-05-05 00:56 | 37.64810 | -87.59007 | 40801 ft | 530 kts | 159° |
| 2026-05-05 00:56 | 37.58204 | -87.54962 | 40817 ft | 531 kts | 159° |
| 2026-05-05 00:57 | 37.51548 | -87.50901 | 40828 ft | 532 kts | 159° |
| 2026-05-05 00:57 | 37.44885 | -87.46843 | 40809 ft | 532 kts | 159° |
| 2026-05-05 00:58 | 37.38208 | -87.42783 | 40848 ft | 534 kts | 159° |
| 2026-05-05 00:58 | 37.31511 | -87.38719 | 40851 ft | 535 kts | 159° |
| 2026-05-05 00:59 | 37.24804 | -87.34655 | 40860 ft | 535 kts | 159° |
| 2026-05-05 00:59 | 37.18100 | -87.30600 | 40855 ft | 534 kts | 159° |
| 2026-05-05 01:00 | 37.11413 | -87.26564 | 40865 ft | 533 kts | 159° |
| 2026-05-05 01:00 | 37.04720 | -87.22537 | 40872 ft | 533 kts | 159° |
| 2026-05-05 01:01 | 36.98073 | -87.18542 | 40878 ft | 534 kts | 159° |
| 2026-05-05 01:01 | 36.91372 | -87.14522 | 40877 ft | 535 kts | 159° |
| 2026-05-05 01:02 | 36.84656 | -87.10501 | 40879 ft | 535 kts | 159° |
| 2026-05-05 01:02 | 36.78501 | -87.06823 | 40890 ft | 535 kts | 159° |
| 2026-05-05 01:02 | 36.75145 | -87.04821 | 40631 ft | 535 kts | 159° |
| 2026-05-05 01:03 | 36.71774 | -87.02811 | 40149 ft | 535 kts | 159° |
| 2026-05-05 01:03 | 36.68415 | -87.00811 | 39917 ft | 536 kts | 159° |
| 2026-05-05 01:03 | 36.65035 | -86.98802 | 39894 ft | 540 kts | 159° |
| 2026-05-05 01:04 | 36.58237 | -86.94766 | 39901 ft | 542 kts | 159° |
| 2026-05-05 01:04 | 36.48064 | -86.88727 | 39907 ft | 537 kts | 159° |
| 2026-05-05 01:05 | 36.41313 | -86.84738 | 39904 ft | 539 kts | 159° |
| 2026-05-05 01:05 | 36.34564 | -86.80761 | 39904 ft | 541 kts | 159° |
| 2026-05-05 01:06 | 36.27753 | -86.76751 | 39902 ft | 542 kts | 159° |
| 2026-05-05 01:06 | 36.20934 | -86.72742 | 39934 ft | 542 kts | 159° |
| 2026-05-05 01:07 | 36.14102 | -86.68734 | 39935 ft | 545 kts | 159° |
| 2026-05-05 01:07 | 36.07341 | -86.64391 | 39199 ft | 551 kts | 154° |
| 2026-05-05 01:08 | 36.04026 | -86.61988 | 38431 ft | 555 kts | 153° |
| 2026-05-05 01:08 | 36.00805 | -86.59610 | 37683 ft | 554 kts | 152° |
| 2026-05-05 01:08 | 35.97515 | -86.57193 | 37114 ft | 548 kts | 153° |
| 2026-05-05 01:08 | 35.94242 | -86.54821 | 36689 ft | 539 kts | 153° |
| 2026-05-05 01:09 | 35.91026 | -86.52520 | 36187 ft | 532 kts | 153° |
| 2026-05-05 01:09 | 35.87821 | -86.50253 | 35479 ft | 530 kts | 154° |
| 2026-05-05 01:09 | 35.84620 | -86.48007 | 34819 ft | 528 kts | 154° |
| 2026-05-05 01:09 | 35.81438 | -86.45782 | 34174 ft | 525 kts | 154° |
| 2026-05-05 01:10 | 35.78268 | -86.43568 | 33481 ft | 521 kts | 154° |
| 2026-05-05 01:10 | 35.75126 | -86.41375 | 33047 ft | 520 kts | 154° |
| 2026-05-05 01:10 | 35.68803 | -86.36953 | 32941 ft | 523 kts | 153° |
| 2026-05-05 01:11 | 35.62536 | -86.32493 | 32953 ft | 524 kts | 153° |
| 2026-05-05 01:11 | 35.56281 | -86.28038 | 32954 ft | 512 kts | 153° |
| 2026-05-05 01:12 | 35.50133 | -86.23690 | 32968 ft | 509 kts | 153° |
| 2026-05-05 01:12 | 35.44012 | -86.19341 | 32945 ft | 510 kts | 151° |
| 2026-05-05 01:13 | 35.38305 | -86.14134 | 32984 ft | 511 kts | 144° |
| 2026-05-05 01:13 | 35.32750 | -86.08717 | 32976 ft | 510 kts | 144° |
| 2026-05-05 01:14 | 35.27183 | -86.03314 | 32993 ft | 510 kts | 144° |
| 2026-05-05 01:14 | 35.21637 | -85.97985 | 32987 ft | 510 kts | 144° |
| 2026-05-05 01:15 | 35.16046 | -85.92638 | 32983 ft | 510 kts | 144° |
| 2026-05-05 01:15 | 35.11388 | -85.88190 | 32987 ft | 511 kts | 144° |
| 2026-05-05 01:16 | 35.04834 | -85.81938 | 32988 ft | 511 kts | 144° |
| 2026-05-05 01:16 | 34.99219 | -85.76593 | 32988 ft | 511 kts | 144° |
| 2026-05-05 01:17 | 34.94557 | -85.72163 | 32995 ft | 511 kts | 144° |
| 2026-05-05 01:17 | 34.88938 | -85.66831 | 32986 ft | 513 kts | 144° |
| 2026-05-05 01:18 | 34.83285 | -85.61478 | 32990 ft | 516 kts | 144° |
| 2026-05-05 01:18 | 34.77604 | -85.56112 | 32991 ft | 516 kts | 145° |
| 2026-05-05 01:19 | 34.71932 | -85.50750 | 32990 ft | 516 kts | 144° |
| 2026-05-05 01:19 | 34.66777 | -85.45882 | 32992 ft | 517 kts | 144° |
| 2026-05-05 01:20 | 34.61117 | -85.40549 | 32611 ft | 507 kts | 145° |
| 2026-05-05 01:20 | 34.58402 | -85.37996 | 31796 ft | 495 kts | 145° |
| 2026-05-05 01:20 | 34.55701 | -85.35455 | 30736 ft | 486 kts | 145° |
| 2026-05-05 01:21 | 34.53022 | -85.32936 | 29725 ft | 476 kts | 145° |
| 2026-05-05 01:21 | 34.50469 | -85.30538 | 28582 ft | 467 kts | 145° |
| 2026-05-05 01:21 | 34.47921 | -85.28149 | 27417 ft | 459 kts | 144° |
| 2026-05-05 01:21 | 34.45413 | -85.25799 | 26306 ft | 452 kts | 144° |
| 2026-05-05 01:22 | 34.42942 | -85.23487 | 25267 ft | 445 kts | 144° |
| 2026-05-05 01:22 | 34.40513 | -85.21215 | 24234 ft | 438 kts | 144° |
| 2026-05-05 01:22 | 34.38123 | -85.18981 | 23159 ft | 431 kts | 144° |
| 2026-05-05 01:22 | 34.35766 | -85.16780 | 21984 ft | 424 kts | 144° |
| 2026-05-05 01:23 | 34.33452 | -85.14617 | 20899 ft | 416 kts | 145° |
| 2026-05-05 01:23 | 34.31184 | -85.12501 | 19866 ft | 407 kts | 145° |
| 2026-05-05 01:23 | 34.28962 | -85.10430 | 18863 ft | 400 kts | 145° |
| 2026-05-05 01:23 | 34.26780 | -85.08397 | 17825 ft | 392 kts | 145° |
| 2026-05-05 01:24 | 34.24639 | -85.06404 | 16721 ft | 385 kts | 145° |
| 2026-05-05 01:24 | 34.22529 | -85.04443 | 15631 ft | 379 kts | 145° |
| 2026-05-05 01:24 | 34.20458 | -85.02518 | 14644 ft | 372 kts | 145° |
| 2026-05-05 01:24 | 34.18428 | -85.00633 | 13632 ft | 365 kts | 145° |
| 2026-05-05 01:25 | 34.16431 | -84.98779 | 12528 ft | 359 kts | 145° |
| 2026-05-05 01:25 | 34.14464 | -84.96954 | 11473 ft | 354 kts | 145° |
| 2026-05-05 01:25 | 34.12525 | -84.95146 | 10662 ft | 350 kts | 144° |
| 2026-05-05 01:25 | 34.10617 | -84.93332 | 10169 ft | 349 kts | 144° |
| 2026-05-05 01:26 | 34.08703 | -84.91513 | 9924 ft | 351 kts | 144° |
| 2026-05-05 01:26 | 34.06819 | -84.89723 | 9713 ft | 337 kts | 144° |
| 2026-05-05 01:26 | 34.05043 | -84.88037 | 9459 ft | 323 kts | 144° |
| 2026-05-05 01:26 | 34.03308 | -84.86393 | 9236 ft | 310 kts | 144° |
| 2026-05-05 01:27 | 34.01640 | -84.84815 | 8998 ft | 299 kts | 144° |
| 2026-05-05 01:27 | 34.00028 | -84.83297 | 8733 ft | 290 kts | 144° |
| 2026-05-05 01:27 | 33.98455 | -84.81814 | 8480 ft | 286 kts | 144° |
| 2026-05-05 01:27 | 33.96886 | -84.80339 | 8232 ft | 285 kts | 144° |
| 2026-05-05 01:28 | 33.95251 | -84.79028 | 7976 ft | 281 kts | 155° |
| 2026-05-05 01:28 | 33.93482 | -84.78057 | 7736 ft | 278 kts | 160° |
| 2026-05-05 01:28 | 33.91693 | -84.77174 | 7490 ft | 276 kts | 160° |
| 2026-05-05 01:28 | 33.89920 | -84.76305 | 7251 ft | 275 kts | 160° |
| 2026-05-05 01:29 | 33.88150 | -84.75436 | 7002 ft | 273 kts | 160° |
| 2026-05-05 01:29 | 33.86394 | -84.74570 | 6757 ft | 272 kts | 160° |
| 2026-05-05 01:29 | 33.84647 | -84.73708 | 6526 ft | 270 kts | 160° |
| 2026-05-05 01:29 | 33.82915 | -84.72854 | 6365 ft | 269 kts | 160° |
| 2026-05-05 01:30 | 33.81182 | -84.71998 | 6234 ft | 268 kts | 160° |
| 2026-05-05 01:30 | 33.79459 | -84.71148 | 6107 ft | 267 kts | 160° |
| 2026-05-05 01:30 | 33.77764 | -84.70311 | 5979 ft | 267 kts | 160° |
| 2026-05-05 01:30 | 33.76047 | -84.69464 | 5865 ft | 266 kts | 160° |
| 2026-05-05 01:31 | 33.74336 | -84.68620 | 5735 ft | 265 kts | 160° |
| 2026-05-05 01:31 | 33.72471 | -84.67701 | 5598 ft | 265 kts | 160° |
| 2026-05-05 01:31 | 33.70930 | -84.66942 | 5484 ft | 264 kts | 160° |
| 2026-05-05 01:31 | 33.69232 | -84.66106 | 5354 ft | 263 kts | 159° |
| 2026-05-05 01:32 | 33.67541 | -84.65273 | 5234 ft | 263 kts | 159° |
| 2026-05-05 01:32 | 33.65855 | -84.64442 | 5113 ft | 262 kts | 160° |
| 2026-05-05 01:32 | 33.64169 | -84.63614 | 4988 ft | 261 kts | 159° |
| 2026-05-05 01:32 | 33.62490 | -84.62788 | 4861 ft | 260 kts | 159° |
| 2026-05-05 01:33 | 33.60816 | -84.61965 | 4751 ft | 260 kts | 159° |
| 2026-05-05 01:33 | 33.59144 | -84.61144 | 4603 ft | 259 kts | 159° |
| 2026-05-05 01:33 | 33.57483 | -84.60328 | 4492 ft | 258 kts | 159° |
| 2026-05-05 01:33 | 33.55850 | -84.59432 | 4345 ft | 259 kts | 152° |
| 2026-05-05 01:34 | 33.54495 | -84.58006 | 4224 ft | 263 kts | 129° |
| 2026-05-05 01:34 | 33.53746 | -84.56008 | 4109 ft | 268 kts | 104° |
| 2026-05-05 01:34 | 33.53614 | -84.53773 | 4011 ft | 270 kts | 92° |
| 2026-05-05 01:34 | 33.53637 | -84.51515 | 3989 ft | 271 kts | 92° |
| 2026-05-05 01:35 | 33.53659 | -84.49260 | 3997 ft | 270 kts | 92° |
| 2026-05-05 01:35 | 33.53671 | -84.47004 | 3991 ft | 270 kts | 92° |
| 2026-05-05 01:35 | 33.53677 | -84.44749 | 3997 ft | 270 kts | 92° |
| 2026-05-05 01:35 | 33.53680 | -84.42497 | 3996 ft | 271 kts | 92° |
| 2026-05-05 01:36 | 33.53687 | -84.40242 | 3996 ft | 270 kts | 92° |
| 2026-05-05 01:36 | 33.53689 | -84.37985 | 3996 ft | 271 kts | 92° |
| 2026-05-05 01:36 | 33.53690 | -84.35723 | 4031 ft | 270 kts | 92° |
| 2026-05-05 01:36 | 33.53691 | -84.33474 | 4031 ft | 270 kts | 93° |
| 2026-05-05 01:37 | 33.53691 | -84.31225 | 4031 ft | 270 kts | 92° |
| 2026-05-05 01:37 | 33.53693 | -84.28976 | 4030 ft | 270 kts | 92° |
| 2026-05-05 01:37 | 33.53696 | -84.26727 | 4028 ft | 270 kts | 92° |
| 2026-05-05 01:37 | 33.53698 | -84.24394 | 4027 ft | 271 kts | 92° |
| 2026-05-05 01:38 | 33.53700 | -84.22248 | 4025 ft | 271 kts | 92° |
| 2026-05-05 01:38 | 33.53701 | -84.19996 | 4023 ft | 271 kts | 92° |
| 2026-05-05 01:38 | 33.53702 | -84.17706 | 4021 ft | 271 kts | 92° |
| 2026-05-05 01:38 | 33.53703 | -84.15480 | 4019 ft | 271 kts | 92° |
| 2026-05-05 01:39 | 33.53704 | -84.13231 | 4019 ft | 271 kts | 92° |
| 2026-05-05 01:39 | 33.53710 | -84.10967 | 4016 ft | 271 kts | 92° |
| 2026-05-05 01:39 | 33.53712 | -84.08714 | 3994 ft | 271 kts | 92° |
| 2026-05-05 01:39 | 33.53868 | -84.06462 | 3996 ft | 274 kts | 77° |
| 2026-05-05 01:40 | 33.54757 | -84.04443 | 3998 ft | 278 kts | 50° |
| 2026-05-05 01:40 | 33.56324 | -84.03094 | 3997 ft | 281 kts | 22° |
| 2026-05-05 01:40 | 33.58234 | -84.02713 | 3998 ft | 280 kts | 355° |
| 2026-05-05 01:40 | 33.60075 | -84.03384 | 3997 ft | 276 kts | 327° |
| 2026-05-05 01:41 | 33.61449 | -84.04935 | 4004 ft | 271 kts | 302° |
| 2026-05-05 01:41 | 33.62400 | -84.06871 | 3995 ft | 269 kts | 295° |
| 2026-05-05 01:41 | 33.63021 | -84.08973 | 4002 ft | 266 kts | 278° |
| 2026-05-05 01:41 | 33.63198 | -84.11164 | 3997 ft | 263 kts | 268° |
| 2026-05-05 01:42 | 33.63184 | -84.13358 | 3999 ft | 263 kts | 266° |
| 2026-05-05 01:42 | 33.63165 | -84.15554 | 3997 ft | 263 kts | 266° |
| 2026-05-05 01:42 | 33.63160 | -84.17750 | 4010 ft | 262 kts | 267° |
| 2026-05-05 01:42 | 33.63167 | -84.19933 | 4012 ft | 262 kts | 267° |
| 2026-05-05 01:43 | 33.63176 | -84.22122 | 4010 ft | 263 kts | 267° |
| 2026-05-05 01:43 | 33.63185 | -84.24315 | 3875 ft | 262 kts | 267° |
| 2026-05-05 01:43 | 33.63188 | -84.26476 | 3534 ft | 251 kts | 267° |
| 2026-05-05 01:43 | 33.63187 | -84.28493 | 3192 ft | 232 kts | 266° |
| 2026-05-05 01:44 | 33.63186 | -84.30363 | 2899 ft | 216 kts | 266° |
| 2026-05-05 01:44 | 33.63186 | -84.32092 | 2631 ft | 197 kts | 266° |
| 2026-05-05 01:44 | 33.63187 | -84.33655 | 2396 ft | 180 kts | 265° |
| 2026-05-05 01:44 | 33.63185 | -84.35100 | 2153 ft | 166 kts | 265° |
| 2026-05-05 01:45 | 33.63186 | -84.36409 | 1926 ft | 151 kts | 264° |
| 2026-05-05 01:45 | 33.63185 | -84.37596 | 1727 ft | 135 kts | 264° |
| 2026-05-05 01:45 | 33.63184 | -84.38703 | 1557 ft | 132 kts | 266° |
| 2026-05-05 01:45 | 33.63176 | -84.39812 | 1390 ft | 133 kts | 267° |
| 2026-05-05 01:46 | 33.63176 | -84.40927 | 1229 ft | 133 kts | 270° |
| 2026-05-05 01:46 | 33.63194 | -84.42045 | 1082 ft | 134 kts | 268° |
| 2026-05-05 01:46 | 33.63189 | -84.43116 | 1044 ft | 117 kts | 268° |
| 2026-05-05 01:46 | 33.63181 | -84.43807 | 1026 ft | 42 kts | 270° |
| 2026-05-05 01:47 | 33.63182 | -84.43912 | 1025 ft | 9 kts | 271° |
| 2026-05-05 01:47 | 33.63191 | -84.44033 | 1024 ft | 20 kts | 282° |
| 2026-05-05 01:47 | 33.63248 | -84.44214 | 1023 ft | 19 kts | 302° |
| 2026-05-05 01:47 | 33.63291 | -84.44257 | 1019 ft | 0 kts | 339° |
| 2026-05-05 01:48 | 33.63327 | -84.44261 | 1019 ft | 9 kts | 10° |
| 2026-05-05 01:49 | 33.63387 | -84.44211 | 1022 ft | 12 kts | 31° |
| 2026-05-05 01:49 | 33.63468 | -84.44196 | 1026 ft | 13 kts | 358° |
| 2026-05-05 01:49 | 33.63592 | -84.44197 | 1020 ft | 23 kts | 0° |
| 2026-05-05 01:49 | 33.63691 | -84.44132 | 1015 ft | 10 kts | 32° |
| 2026-05-05 01:50 | 33.63789 | -84.44118 | 1013 ft | 18 kts | 1° |
| 2026-05-05 01:50 | 33.63931 | -84.44117 | 1013 ft | 18 kts | 0° |
| 2026-05-05 01:50 | 33.63989 | -84.44126 | 1013 ft | 6 kts | 327° |
| 2026-05-05 01:50 | 33.64000 | -84.44164 | 1013 ft | 5 kts | 278° |
| 2026-05-05 01:51 | 33.64001 | -84.44193 | 1013 ft | 0 kts | 270° |